Terminal Aerodrome Forecast
Issued by NWS Flagstaff, AZ

Home | Current Version | Previous Version | Text Only | Print | Product List | Glossary On
Versions: 1 2 3 4 5 6 7 8 9 10 11 12 13 14
993
FTUS45 KFGZ 261725
TAFINW
TAF
KINW 261725Z 2618/2718 VRB05KT P6SM FEW250
     FM262000 28015G25KT P6SM BKN200
     FM270000 26020G30KT P6SM BKN200
     FM271200 26015KT P6SM BKN200=

USA.gov is the U.S. government's official web portal to all federal, state and local government web resources and services.